sensor_id;sensor_type;location;lat;lon;timestamp;pressure;altitude;pressure_sealevel;temperature;humidity
43691;BME280;29293;52.190;21.226;2023-03-12T00:14:18;99323.92;;;-2.39;100.00
43691;BME280;29293;52.190;21.226;2023-03-12T00:29:25;99324.25;;;-2.45;100.00
43691;BME280;29293;52.190;21.226;2023-03-12T00:44:31;99315.16;;;-2.44;100.00
43691;BME280;29293;52.190;21.226;2023-03-12T00:59:38;99307.25;;;-2.32;100.00
43691;BME280;29293;52.190;21.226;2023-03-12T01:14:46;99308.61;;;-2.13;100.00
43691;BME280;29293;52.190;21.226;2023-03-12T01:29:53;99295.48;;;-2.06;100.00
43691;BME280;29293;52.190;21.226;2023-03-12T01:45:02;99294.62;;;-2.02;100.00
43691;BME280;29293;52.190;21.226;2023-03-12T02:00:12;99271.55;;;-1.90;100.00
43691;BME280;29293;52.190;21.226;2023-03-12T02:15:24;99273.17;;;-1.80;100.00
43691;BME280;29293;52.190;21.226;2023-03-12T02:30:31;99275.73;;;-1.70;100.00
43691;BME280;29293;52.190;21.226;2023-03-12T02:45:39;99279.99;;;-1.59;100.00
43691;BME280;29293;52.190;21.226;2023-03-12T03:00:46;99281.81;;;-1.49;100.00
43691;BME280;29293;52.190;21.226;2023-03-12T03:15:51;99282.42;;;-1.37;100.00
43691;BME280;29293;52.190;21.226;2023-03-12T03:30:59;99293.48;;;-1.27;100.00
43691;BME280;29293;52.190;21.226;2023-03-12T03:46:06;99306.11;;;-1.19;100.00
43691;BME280;29293;52.190;21.226;2023-03-12T04:01:16;99318.54;;;-1.10;100.00
43691;BME280;29293;52.190;21.226;2023-03-12T04:16:21;99325.06;;;-1.05;100.00
43691;BME280;29293;52.190;21.226;2023-03-12T04:31:29;99348.52;;;-1.08;100.00
43691;BME280;29293;52.190;21.226;2023-03-12T04:46:36;99355.67;;;-1.04;100.00
43691;BME280;29293;52.190;21.226;2023-03-12T05:01:43;99347.33;;;-1.00;100.00
43691;BME280;29293;52.190;21.226;2023-03-12T05:16:50;99344.21;;;-0.92;100.00
43691;BME280;29293;52.190;21.226;2023-03-12T05:31:57;99351.55;;;-0.87;100.00
43691;BME280;29293;52.190;21.226;2023-03-12T05:47:04;99359.15;;;-0.82;100.00
43691;BME280;29293;52.190;21.226;2023-03-12T06:02:11;99375.94;;;-0.77;100.00
43691;BME280;29293;52.190;21.226;2023-03-12T06:17:18;99384.09;;;-0.66;100.00
43691;BME280;29293;52.190;21.226;2023-03-12T06:32:25;99410.84;;;-0.56;100.00
43691;BME280;29293;52.190;21.226;2023-03-12T06:47:32;99412.95;;;-0.41;100.00
43691;BME280;29293;52.190;21.226;2023-03-12T07:02:39;99426.82;;;-0.12;100.00
43691;BME280;29293;52.190;21.226;2023-03-12T07:17:46;99450.39;;;-0.03;100.00
43691;BME280;29293;52.190;21.226;2023-03-12T07:32:53;99457.93;;;0.09;100.00
43691;BME280;29293;52.190;21.226;2023-03-12T07:48:01;99460.56;;;0.60;100.00
43691;BME280;29293;52.190;21.226;2023-03-12T08:03:08;99473.56;;;1.22;100.00
43691;BME280;29293;52.190;21.226;2023-03-12T08:18:16;99481.53;;;1.56;100.00
43691;BME280;29293;52.190;21.226;2023-03-12T08:33:23;99503.02;;;1.32;100.00
43691;BME280;29293;52.190;21.226;2023-03-12T08:48:31;99529.25;;;1.01;100.00
43691;BME280;29293;52.190;21.226;2023-03-12T09:03:38;99544.02;;;1.17;100.00
43691;BME280;29293;52.190;21.226;2023-03-12T09:18:47;99555.28;;;1.49;100.00
43691;BME280;29293;52.190;21.226;2023-03-12T09:33:54;99564.94;;;1.49;100.00
43691;BME280;29293;52.190;21.226;2023-03-12T09:49:04;99576.83;;;1.53;100.00
43691;BME280;29293;52.190;21.226;2023-03-12T10:04:25;99593.31;;;1.46;100.00
43691;BME280;29293;52.190;21.226;2023-03-12T10:19:57;99601.02;;;1.78;100.00
43691;BME280;29293;52.190;21.226;2023-03-12T10:35:35;99608.13;;;1.90;100.00
43691;BME280;29293;52.190;21.226;2023-03-12T10:50:42;99625.61;;;1.98;100.00
43691;BME280;29293;52.190;21.226;2023-03-12T11:05:51;99641.57;;;2.05;100.00
43691;BME280;29293;52.190;21.226;2023-03-12T11:21:14;99654.67;;;2.14;100.00
43691;BME280;29293;52.190;21.226;2023-03-12T11:36:34;99664.34;;;2.31;100.00
43691;BME280;29293;52.190;21.226;2023-03-12T11:51:51;99650.13;;;3.73;100.00
43691;BME280;29293;52.190;21.226;2023-03-12T12:07:10;99664.17;;;4.59;100.00
43691;BME280;29293;52.190;21.226;2023-03-12T12:22:32;99668.25;;;4.14;100.00
43691;BME280;29293;52.190;21.226;2023-03-12T12:37:50;99675.75;;;3.71;100.00
43691;BME280;29293;52.190;21.226;2023-03-12T12:53:02;99694.95;;;3.67;100.00
43691;BME280;29293;52.190;21.226;2023-03-12T13:23:56;99732.99;;;3.37;100.00
43691;BME280;29293;52.190;21.226;2023-03-12T13:39:29;99739.93;;;3.99;100.00
43691;BME280;29293;52.190;21.226;2023-03-12T13:54:42;99753.40;;;3.84;100.00
43691;BME280;29293;52.190;21.226;2023-03-12T14:09:57;99767.06;;;3.85;100.00
43691;BME280;29293;52.190;21.226;2023-03-12T14:25:15;99776.70;;;3.80;100.00
43691;BME280;29293;52.190;21.226;2023-03-12T14:40:28;99788.30;;;4.28;100.00
43691;BME280;29293;52.190;21.226;2023-03-12T14:55:39;99797.91;;;4.10;100.00
43691;BME280;29293;52.190;21.226;2023-03-12T15:10:50;99817.19;;;3.32;100.00
43691;BME280;29293;52.190;21.226;2023-03-12T15:26:29;99842.17;;;2.75;100.00
43691;BME280;29293;52.190;21.226;2023-03-12T15:41:42;99860.92;;;2.35;100.00
43691;BME280;29293;52.190;21.226;2023-03-12T15:56:49;99866.98;;;2.07;100.00
43691;BME280;29293;52.190;21.226;2023-03-12T16:11:57;99877.80;;;1.95;100.00
43691;BME280;29293;52.190;21.226;2023-03-12T16:27:09;99886.52;;;1.85;100.00
43691;BME280;29293;52.190;21.226;2023-03-12T16:42:18;99897.41;;;1.71;100.00
43691;BME280;29293;52.190;21.226;2023-03-12T16:57:33;99909.92;;;1.51;100.00
43691;BME280;29293;52.190;21.226;2023-03-12T17:12:42;99928.11;;;1.28;100.00
43691;BME280;29293;52.190;21.226;2023-03-12T17:27:50;99934.05;;;0.99;100.00
43691;BME280;29293;52.190;21.226;2023-03-12T17:42:59;99949.02;;;0.73;100.00
43691;BME280;29293;52.190;21.226;2023-03-12T17:58:07;99963.16;;;0.51;100.00
43691;BME280;29293;52.190;21.226;2023-03-12T18:13:14;99965.86;;;0.31;100.00
43691;BME280;29293;52.190;21.226;2023-03-12T18:28:21;99983.35;;;0.12;100.00
43691;BME280;29293;52.190;21.226;2023-03-12T18:43:28;99999.70;;;-0.13;100.00
43691;BME280;29293;52.190;21.226;2023-03-12T18:58:35;100005.58;;;-0.44;100.00
43691;BME280;29293;52.190;21.226;2023-03-12T19:13:42;100001.23;;;-0.69;100.00
43691;BME280;29293;52.190;21.226;2023-03-12T19:28:49;99991.77;;;-0.87;100.00
43691;BME280;29293;52.190;21.226;2023-03-12T19:43:56;100000.73;;;-0.94;100.00
43691;BME280;29293;52.190;21.226;2023-03-12T19:59:03;100020.73;;;-1.00;100.00
43691;BME280;29293;52.190;21.226;2023-03-12T20:14:13;100031.60;;;-1.10;100.00
43691;BME280;29293;52.190;21.226;2023-03-12T20:29:20;100039.69;;;-1.19;100.00
43691;BME280;29293;52.190;21.226;2023-03-12T20:44:27;100033.20;;;-1.45;100.00
43691;BME280;29293;52.190;21.226;2023-03-12T20:59:33;100011.90;;;-1.68;100.00
43691;BME280;29293;52.190;21.226;2023-03-12T21:14:49;100006.27;;;-1.83;100.00
43691;BME280;29293;52.190;21.226;2023-03-12T21:29:56;99999.05;;;-2.05;100.00
43691;BME280;29293;52.190;21.226;2023-03-12T21:45:07;99988.76;;;-2.13;100.00
43691;BME280;29293;52.190;21.226;2023-03-12T22:00:15;99984.52;;;-2.18;100.00
43691;BME280;29293;52.190;21.226;2023-03-12T22:15:22;99981.88;;;-2.18;100.00
43691;BME280;29293;52.190;21.226;2023-03-12T22:30:29;99973.33;;;-2.10;100.00
43691;BME280;29293;52.190;21.226;2023-03-12T22:45:36;99960.91;;;-1.94;100.00
43691;BME280;29293;52.190;21.226;2023-03-12T23:00:43;99955.54;;;-1.76;100.00
43691;BME280;29293;52.190;21.226;2023-03-12T23:15:50;99936.32;;;-1.52;100.00
43691;BME280;29293;52.190;21.226;2023-03-12T23:30:58;99920.27;;;-1.34;100.00
43691;BME280;29293;52.190;21.226;2023-03-12T23:46:07;99913.41;;;-1.18;100.00
